sensor_id;sensor_type;location;lat;lon;timestamp;pressure;altitude;pressure_sealevel;temperature;humidity
55671;BME280;41551;47.500;8.408;2022-07-22T00:00:36;96572.63;;;17.99;92.23
55671;BME280;41551;47.500;8.408;2022-07-22T00:03:03;96576.41;;;17.93;92.38
55671;BME280;41551;47.500;8.408;2022-07-22T00:05:30;96572.16;;;17.87;93.01
55671;BME280;41551;47.500;8.408;2022-07-22T00:07:57;96572.22;;;17.82;93.84
55671;BME280;41551;47.500;8.408;2022-07-22T00:10:25;96567.19;;;17.80;94.56
55671;BME280;41551;47.500;8.408;2022-07-22T00:12:52;96569.56;;;17.82;93.92
55671;BME280;41551;47.500;8.408;2022-07-22T00:15:18;96566.41;;;17.80;94.66
55671;BME280;41551;47.500;8.408;2022-07-22T00:17:45;96558.91;;;17.82;94.97
55671;BME280;41551;47.500;8.408;2022-07-22T00:20:12;96557.66;;;17.74;95.01
55671;BME280;41551;47.500;8.408;2022-07-22T00:22:39;96560.59;;;17.72;94.41
55671;BME280;41551;47.500;8.408;2022-07-22T00:25:06;96564.91;;;17.68;94.97
55671;BME280;41551;47.500;8.408;2022-07-22T00:27:35;96564.44;;;17.61;96.07
55671;BME280;41551;47.500;8.408;2022-07-22T00:30:02;96565.53;;;17.60;96.38
55671;BME280;41551;47.500;8.408;2022-07-22T00:32:29;96546.88;;;17.55;96.23
55671;BME280;41551;47.500;8.408;2022-07-22T00:34:56;96552.75;;;17.57;95.56
55671;BME280;41551;47.500;8.408;2022-07-22T00:37:23;96551.44;;;17.54;94.88
55671;BME280;41551;47.500;8.408;2022-07-22T00:39:50;96553.75;;;17.61;95.12
55671;BME280;41551;47.500;8.408;2022-07-22T00:42:17;96541.63;;;17.50;96.55
55671;BME280;41551;47.500;8.408;2022-07-22T00:44:46;96544.91;;;17.42;96.99
55671;BME280;41551;47.500;8.408;2022-07-22T00:47:12;96542.53;;;17.40;97.03
55671;BME280;41551;47.500;8.408;2022-07-22T00:49:39;96541.78;;;17.34;97.70
55671;BME280;41551;47.500;8.408;2022-07-22T00:52:06;96535.97;;;17.27;98.47
55671;BME280;41551;47.500;8.408;2022-07-22T00:54:33;96537.03;;;17.26;98.05
55671;BME280;41551;47.500;8.408;2022-07-22T00:57:00;96529.31;;;17.25;98.66
55671;BME280;41551;47.500;8.408;2022-07-22T00:59:27;96528.88;;;17.17;99.18
55671;BME280;41551;47.500;8.408;2022-07-22T01:01:55;96533.94;;;17.14;99.12
55671;BME280;41551;47.500;8.408;2022-07-22T01:04:22;96528.63;;;17.14;98.67
55671;BME280;41551;47.500;8.408;2022-07-22T01:06:49;96531.34;;;17.09;99.68
55671;BME280;41551;47.500;8.408;2022-07-22T01:09:15;96520.19;;;17.01;100.00
55671;BME280;41551;47.500;8.408;2022-07-22T01:11:42;96527.41;;;17.01;100.00
55671;BME280;41551;47.500;8.408;2022-07-22T01:14:09;96530.28;;;17.04;100.00
55671;BME280;41551;47.500;8.408;2022-07-22T01:16:36;96530.28;;;17.04;100.00
55671;BME280;41551;47.500;8.408;2022-07-22T01:19:05;96523.38;;;17.03;99.51
55671;BME280;41551;47.500;8.408;2022-07-22T01:21:33;96518.56;;;17.05;99.82
55671;BME280;41551;47.500;8.408;2022-07-22T01:24:00;96518.84;;;17.04;100.00
55671;BME280;41551;47.500;8.408;2022-07-22T01:26:27;96532.44;;;17.02;100.00
55671;BME280;41551;47.500;8.408;2022-07-22T01:28:53;96525.03;;;16.99;100.00
55671;BME280;41551;47.500;8.408;2022-07-22T01:31:20;96524.19;;;16.99;100.00
55671;BME280;41551;47.500;8.408;2022-07-22T01:33:47;96521.59;;;16.94;100.00
55671;BME280;41551;47.500;8.408;2022-07-22T01:36:15;96526.16;;;16.88;100.00
55671;BME280;41551;47.500;8.408;2022-07-22T01:38:43;96520.84;;;16.88;100.00
55671;BME280;41551;47.500;8.408;2022-07-22T01:41:10;96528.28;;;16.86;100.00
55671;BME280;41551;47.500;8.408;2022-07-22T01:43:38;96525.91;;;16.84;100.00
55671;BME280;41551;47.500;8.408;2022-07-22T01:46:06;96520.84;;;16.83;100.00
55671;BME280;41551;47.500;8.408;2022-07-22T01:48:33;96526.19;;;16.83;100.00
55671;BME280;41551;47.500;8.408;2022-07-22T01:50:59;96523.50;;;16.83;100.00
55671;BME280;41551;47.500;8.408;2022-07-22T01:53:26;96524.63;;;16.77;100.00
55671;BME280;41551;47.500;8.408;2022-07-22T01:55:54;96520.66;;;16.74;100.00
55671;BME280;41551;47.500;8.408;2022-07-22T01:58:21;96521.97;;;16.72;100.00
55671;BME280;41551;47.500;8.408;2022-07-22T02:00:48;96511.34;;;16.72;100.00
55671;BME280;41551;47.500;8.408;2022-07-22T02:03:15;96514.59;;;16.63;100.00
55671;BME280;41551;47.500;8.408;2022-07-22T02:05:42;96509.81;;;16.60;100.00
55671;BME280;41551;47.500;8.408;2022-07-22T02:08:11;96521.97;;;16.72;100.00
55671;BME280;41551;47.500;8.408;2022-07-22T02:10:39;96517.22;;;16.68;100.00
55671;BME280;41551;47.500;8.408;2022-07-22T02:13:07;96516.44;;;16.68;100.00
55671;BME280;41551;47.500;8.408;2022-07-22T02:15:34;96513.53;;;16.64;100.00
55671;BME280;41551;47.500;8.408;2022-07-22T02:18:09;96511.72;;;16.55;100.00
55671;BME280;41551;47.500;8.408;2022-07-22T02:20:36;96516.31;;;16.49;100.00
55671;BME280;41551;47.500;8.408;2022-07-22T02:23:03;96515.81;;;16.42;100.00
55671;BME280;41551;47.500;8.408;2022-07-22T02:25:30;96516.34;;;16.39;100.00
55671;BME280;41551;47.500;8.408;2022-07-22T02:27:57;96517.19;;;16.34;100.00
55671;BME280;41551;47.500;8.408;2022-07-22T02:30:25;96516.63;;;16.37;100.00
55671;BME280;41551;47.500;8.408;2022-07-22T02:32:52;96517.41;;;16.38;100.00
55671;BME280;41551;47.500;8.408;2022-07-22T02:35:19;96519.03;;;16.39;100.00
55671;BME280;41551;47.500;8.408;2022-07-22T02:37:46;96519.28;;;16.37;100.00
55671;BME280;41551;47.500;8.408;2022-07-22T02:40:13;96512.41;;;16.31;100.00
55671;BME280;41551;47.500;8.408;2022-07-22T02:42:39;96522.78;;;16.27;100.00
55671;BME280;41551;47.500;8.408;2022-07-22T02:45:07;96507.38;;;16.24;100.00
55671;BME280;41551;47.500;8.408;2022-07-22T02:47:44;96511.41;;;16.16;100.00
55671;BME280;41551;47.500;8.408;2022-07-22T02:50:11;96517.28;;;16.13;100.00
55671;BME280;41551;47.500;8.408;2022-07-22T02:52:38;96520.22;;;16.12;100.00
55671;BME280;41551;47.500;8.408;2022-07-22T02:55:06;96526.34;;;16.12;100.00
55671;BME280;41551;47.500;8.408;2022-07-22T02:57:33;96518.38;;;16.12;100.00
55671;BME280;41551;47.500;8.408;2022-07-22T02:59:59;96518.63;;;16.11;100.00
55671;BME280;41551;47.500;8.408;2022-07-22T03:02:26;96513.84;;;16.08;100.00
55671;BME280;41551;47.500;8.408;2022-07-22T03:04:54;96512.28;;;16.02;100.00
55671;BME280;41551;47.500;8.408;2022-07-22T03:07:21;96518.13;;;16.04;100.00
55671;BME280;41551;47.500;8.408;2022-07-22T03:09:48;96517.59;;;16.07;100.00
55671;BME280;41551;47.500;8.408;2022-07-22T03:12:15;96517.59;;;16.02;100.00
55671;BME280;41551;47.500;8.408;2022-07-22T03:14:41;96507.22;;;16.00;100.00
55671;BME280;41551;47.500;8.408;2022-07-22T03:17:08;96502.19;;;15.98;100.00
55671;BME280;41551;47.500;8.408;2022-07-22T03:19:35;96505.16;;;15.92;100.00
55671;BME280;41551;47.500;8.408;2022-07-22T03:22:03;96503.81;;;15.89;100.00
55671;BME280;41551;47.500;8.408;2022-07-22T03:24:30;96508.34;;;15.89;100.00
55671;BME280;41551;47.500;8.408;2022-07-22T03:26:57;96515.53;;;15.88;100.00
55671;BME280;41551;47.500;8.408;2022-07-22T03:29:23;96509.16;;;15.84;100.00
55671;BME280;41551;47.500;8.408;2022-07-22T03:31:50;96505.47;;;15.80;100.00
55671;BME280;41551;47.500;8.408;2022-07-22T03:34:17;96503.84;;;15.84;100.00
55671;BME280;41551;47.500;8.408;2022-07-22T03:36:44;96502.75;;;15.90;100.00
55671;BME280;41551;47.500;8.408;2022-07-22T03:39:12;96500.34;;;15.94;100.00
55671;BME280;41551;47.500;8.408;2022-07-22T03:41:39;96503.53;;;15.96;100.00
55671;BME280;41551;47.500;8.408;2022-07-22T03:44:05;96500.63;;;15.97;100.00
55671;BME280;41551;47.500;8.408;2022-07-22T03:46:32;96501.91;;;16.00;100.00
55671;BME280;41551;47.500;8.408;2022-07-22T03:48:59;96508.00;;;16.06;100.00
55671;BME280;41551;47.500;8.408;2022-07-22T03:51:26;96503.19;;;16.08;100.00
55671;BME280;41551;47.500;8.408;2022-07-22T03:53:52;96508.53;;;16.08;100.00
55671;BME280;41551;47.500;8.408;2022-07-22T03:56:21;96493.66;;;16.07;100.00
55671;BME280;41551;47.500;8.408;2022-07-22T03:58:47;96493.59;;;16.17;100.00
55671;BME280;41551;47.500;8.408;2022-07-22T04:01:14;96486.91;;;16.25;100.00
55671;BME280;41551;47.500;8.408;2022-07-22T04:03:41;96492.72;;;16.27;100.00
55671;BME280;41551;47.500;8.408;2022-07-22T04:06:08;96490.03;;;16.32;100.00
55671;BME280;41551;47.500;8.408;2022-07-22T04:08:34;96494.00;;;16.34;100.00
55671;BME280;41551;47.500;8.408;2022-07-22T04:11:01;96492.41;;;16.39;100.00
55671;BME280;41551;47.500;8.408;2022-07-22T04:13:29;96489.69;;;16.44;100.00
55671;BME280;41551;47.500;8.408;2022-07-22T04:15:56;96487.84;;;16.44;100.00
55671;BME280;41551;47.500;8.408;2022-07-22T04:18:23;96489.69;;;16.49;100.00
55671;BME280;41551;47.500;8.408;2022-07-22T04:20:50;96487.03;;;16.49;100.00
55671;BME280;41551;47.500;8.408;2022-07-22T04:23:17;96484.59;;;16.52;100.00
55671;BME280;41551;47.500;8.408;2022-07-22T04:25:44;96492.53;;;16.58;100.00
55671;BME280;41551;47.500;8.408;2022-07-22T04:28:11;96484.81;;;16.56;100.00
55671;BME280;41551;47.500;8.408;2022-07-22T04:30:39;96475.81;;;16.52;100.00
55671;BME280;41551;47.500;8.408;2022-07-22T04:33:07;96482.41;;;16.60;100.00
55671;BME280;41551;47.500;8.408;2022-07-22T04:35:34;96486.38;;;16.62;100.00
55671;BME280;41551;47.500;8.408;2022-07-22T04:38:00;96488.19;;;16.67;100.00
55671;BME280;41551;47.500;8.408;2022-07-22T04:40:27;96484.19;;;16.69;100.00
55671;BME280;41551;47.500;8.408;2022-07-22T04:42:54;96482.78;;;16.77;100.00
55671;BME280;41551;47.500;8.408;2022-07-22T04:45:21;96483.28;;;16.84;100.00
55671;BME280;41551;47.500;8.408;2022-07-22T04:47:49;96480.31;;;16.91;100.00
55671;BME280;41551;47.500;8.408;2022-07-22T04:50:16;96471.19;;;16.97;100.00
55671;BME280;41551;47.500;8.408;2022-07-22T04:52:43;96481.78;;;17.08;100.00
55671;BME280;41551;47.500;8.408;2022-07-22T04:55:09;96480.38;;;17.15;100.00
55671;BME280;41551;47.500;8.408;2022-07-22T04:57:37;96474.72;;;17.22;100.00
55671;BME280;41551;47.500;8.408;2022-07-22T05:00:04;96474.88;;;17.31;100.00
55671;BME280;41551;47.500;8.408;2022-07-22T05:02:31;96476.94;;;17.39;100.00
55671;BME280;41551;47.500;8.408;2022-07-22T05:05:00;96483.53;;;17.47;100.00
55671;BME280;41551;47.500;8.408;2022-07-22T05:07:27;96479.66;;;17.58;99.82
55671;BME280;41551;47.500;8.408;2022-07-22T05:09:54;96480.84;;;17.71;98.97
55671;BME280;41551;47.500;8.408;2022-07-22T05:12:21;96482.09;;;17.79;98.58
55671;BME280;41551;47.500;8.408;2022-07-22T05:14:48;96479.25;;;17.94;97.48
55671;BME280;41551;47.500;8.408;2022-07-22T05:17:15;96477.53;;;18.03;96.23
55671;BME280;41551;47.500;8.408;2022-07-22T05:19:41;96470.44;;;18.18;95.42
55671;BME280;41551;47.500;8.408;2022-07-22T05:22:10;96478.72;;;18.35;94.27
55671;BME280;41551;47.500;8.408;2022-07-22T05:24:36;96477.78;;;18.45;93.19
55671;BME280;41551;47.500;8.408;2022-07-22T05:27:03;96474.66;;;18.57;92.37
55671;BME280;41551;47.500;8.408;2022-07-22T05:29:30;96474.44;;;18.72;90.74
55671;BME280;41551;47.500;8.408;2022-07-22T05:31:57;96478.50;;;18.83;89.88
55671;BME280;41551;47.500;8.408;2022-07-22T05:34:24;96475.91;;;18.97;88.77
55671;BME280;41551;47.500;8.408;2022-07-22T05:36:51;96474.38;;;19.10;87.96
55671;BME280;41551;47.500;8.408;2022-07-22T05:39:19;96475.75;;;19.22;86.52
55671;BME280;41551;47.500;8.408;2022-07-22T05:41:46;96479.25;;;19.36;85.99
55671;BME280;41551;47.500;8.408;2022-07-22T05:44:12;96481.22;;;19.44;85.81
55671;BME280;41551;47.500;8.408;2022-07-22T05:46:39;96481.03;;;19.55;85.05
55671;BME280;41551;47.500;8.408;2022-07-22T05:49:06;96481.03;;;19.68;84.54
55671;BME280;41551;47.500;8.408;2022-07-22T05:51:33;96479.47;;;19.81;83.50
55671;BME280;41551;47.500;8.408;2022-07-22T05:54:00;96484.91;;;19.90;83.02
55671;BME280;41551;47.500;8.408;2022-07-22T05:56:30;96484.13;;;20.03;81.81
55671;BME280;41551;47.500;8.408;2022-07-22T05:58:57;96477.72;;;20.13;81.13
55671;BME280;41551;47.500;8.408;2022-07-22T06:01:24;96479.59;;;20.27;81.06
55671;BME280;41551;47.500;8.408;2022-07-22T06:03:51;96475.53;;;20.29;79.41
55671;BME280;41551;47.500;8.408;2022-07-22T06:06:18;96477.47;;;20.37;78.02
55671;BME280;41551;47.500;8.408;2022-07-22T06:08:44;96479.94;;;20.48;76.93
55671;BME280;41551;47.500;8.408;2022-07-22T06:11:12;96480.13;;;20.65;75.49
55671;BME280;41551;47.500;8.408;2022-07-22T06:13:40;96476.59;;;20.79;74.60
55671;BME280;41551;47.500;8.408;2022-07-22T06:16:07;96469.38;;;20.88;73.93
55671;BME280;41551;47.500;8.408;2022-07-22T06:18:34;96478.06;;;20.93;72.90
55671;BME280;41551;47.500;8.408;2022-07-22T06:21:00;96468.81;;;21.00;72.28
55671;BME280;41551;47.500;8.408;2022-07-22T06:23:27;96472.81;;;21.11;71.85
55671;BME280;41551;47.500;8.408;2022-07-22T06:25:54;96469.06;;;21.12;71.94
55671;BME280;41551;47.500;8.408;2022-07-22T06:28:21;96479.50;;;21.22;71.63
55671;BME280;41551;47.500;8.408;2022-07-22T06:30:49;96470.25;;;21.37;71.29
55671;BME280;41551;47.500;8.408;2022-07-22T06:33:16;96473.00;;;21.46;70.66
55671;BME280;41551;47.500;8.408;2022-07-22T06:35:43;96475.25;;;21.53;70.97
55671;BME280;41551;47.500;8.408;2022-07-22T06:38:10;96472.13;;;21.59;71.09
55671;BME280;41551;47.500;8.408;2022-07-22T06:40:37;96482.59;;;21.70;71.22
55671;BME280;41551;47.500;8.408;2022-07-22T06:43:03;96478.66;;;21.76;70.29
55671;BME280;41551;47.500;8.408;2022-07-22T06:45:30;96475.66;;;21.86;70.65
55671;BME280;41551;47.500;8.408;2022-07-22T06:47:59;96471.91;;;21.96;69.90
55671;BME280;41551;47.500;8.408;2022-07-22T06:50:26;96475.72;;;22.04;69.59
55671;BME280;41551;47.500;8.408;2022-07-22T06:52:53;96467.03;;;22.15;69.43
55671;BME280;41551;47.500;8.408;2022-07-22T06:55:20;96467.97;;;22.19;69.71
55671;BME280;41551;47.500;8.408;2022-07-22T06:57:47;96460.41;;;22.22;69.81
55671;BME280;41551;47.500;8.408;2022-07-22T07:00:15;96463.44;;;22.38;69.68
55671;BME280;41551;47.500;8.408;2022-07-22T07:02:41;96468.50;;;22.48;69.42
55671;BME280;41551;47.500;8.408;2022-07-22T07:05:10;96466.28;;;22.50;69.45
55671;BME280;41551;47.500;8.408;2022-07-22T07:07:37;96463.59;;;22.59;68.31
55671;BME280;41551;47.500;8.408;2022-07-22T07:10:04;96462.66;;;22.63;68.91
55671;BME280;41551;47.500;8.408;2022-07-22T07:12:31;96460.28;;;22.70;68.43
55671;BME280;41551;47.500;8.408;2022-07-22T07:14:58;96459.31;;;22.66;68.13
55671;BME280;41551;47.500;8.408;2022-07-22T07:17:25;96456.44;;;22.80;67.34
55671;BME280;41551;47.500;8.408;2022-07-22T07:19:51;96453.28;;;22.87;67.65
55671;BME280;41551;47.500;8.408;2022-07-22T07:22:19;96450.91;;;22.94;67.13
55671;BME280;41551;47.500;8.408;2022-07-22T07:24:46;96455.47;;;23.11;66.80
55671;BME280;41551;47.500;8.408;2022-07-22T07:27:13;96451.34;;;23.14;66.57
55671;BME280;41551;47.500;8.408;2022-07-22T07:29:40;96445.13;;;23.31;65.99
55671;BME280;41551;47.500;8.408;2022-07-22T07:32:07;96445.28;;;23.34;65.35
55671;BME280;41551;47.500;8.408;2022-07-22T07:34:33;96444.44;;;23.42;65.42
55671;BME280;41551;47.500;8.408;2022-07-22T07:37:00;96443.66;;;23.42;64.55
55671;BME280;41551;47.500;8.408;2022-07-22T07:39:28;96439.53;;;23.45;64.73
55671;BME280;41551;47.500;8.408;2022-07-22T07:41:55;96439.00;;;23.51;64.99
55671;BME280;41551;47.500;8.408;2022-07-22T07:44:22;96441.38;;;23.53;64.93
55671;BME280;41551;47.500;8.408;2022-07-22T07:46:49;96434.91;;;23.54;64.91
55671;BME280;41551;47.500;8.408;2022-07-22T07:49:16;96434.03;;;23.62;65.06
55671;BME280;41551;47.500;8.408;2022-07-22T07:51:42;96434.34;;;23.69;64.67
55671;BME280;41551;47.500;8.408;2022-07-22T07:54:09;96432.84;;;23.81;63.60
55671;BME280;41551;47.500;8.408;2022-07-22T07:56:37;96435.38;;;23.86;63.49
55671;BME280;41551;47.500;8.408;2022-07-22T07:59:05;96433.88;;;23.97;63.08
55671;BME280;41551;47.500;8.408;2022-07-22T08:01:32;96428.38;;;24.15;63.11
55671;BME280;41551;47.500;8.408;2022-07-22T08:03:58;96432.44;;;24.21;62.62
55671;BME280;41551;47.500;8.408;2022-07-22T08:06:25;96427.31;;;24.28;62.10
55671;BME280;41551;47.500;8.408;2022-07-22T08:08:52;96422.84;;;24.32;62.25
55671;BME280;41551;47.500;8.408;2022-07-22T08:11:19;96428.81;;;24.38;62.32
55671;BME280;41551;47.500;8.408;2022-07-22T08:13:47;96428.75;;;24.46;62.74
55671;BME280;41551;47.500;8.408;2022-07-22T08:16:14;96418.41;;;24.48;62.44
55671;BME280;41551;47.500;8.408;2022-07-22T08:18:41;96416.47;;;24.58;62.08
55671;BME280;41551;47.500;8.408;2022-07-22T08:21:08;96423.03;;;24.69;61.64
55671;BME280;41551;47.500;8.408;2022-07-22T08:23:35;96424.84;;;24.77;60.98
55671;BME280;41551;47.500;8.408;2022-07-22T08:26:02;96422.47;;;24.76;61.25
55671;BME280;41551;47.500;8.408;2022-07-22T08:28:29;96417.66;;;24.81;60.57
55671;BME280;41551;47.500;8.408;2022-07-22T08:30:57;96415.78;;;24.94;60.37
55671;BME280;41551;47.500;8.408;2022-07-22T08:33:24;96409.38;;;24.99;60.14
55671;BME280;41551;47.500;8.408;2022-07-22T08:35:51;96405.56;;;25.12;59.95
55671;BME280;41551;47.500;8.408;2022-07-22T08:38:17;96403.78;;;25.16;60.53
55671;BME280;41551;47.500;8.408;2022-07-22T08:40:44;96396.81;;;25.28;60.11
55671;BME280;41551;47.500;8.408;2022-07-22T08:43:11;96400.13;;;25.33;59.61
55671;BME280;41551;47.500;8.408;2022-07-22T08:45:40;96401.94;;;25.42;59.50
55671;BME280;41551;47.500;8.408;2022-07-22T08:48:08;96392.81;;;25.46;58.87
55671;BME280;41551;47.500;8.408;2022-07-22T08:50:35;96397.31;;;25.54;58.51
55671;BME280;41551;47.500;8.408;2022-07-22T08:53:02;96387.63;;;25.53;58.17
55671;BME280;41551;47.500;8.408;2022-07-22T08:55:30;96385.81;;;25.58;58.51
55671;BME280;41551;47.500;8.408;2022-07-22T08:57:57;96386.59;;;25.70;58.17
55671;BME280;41551;47.500;8.408;2022-07-22T09:00:23;96386.47;;;25.79;58.19
55671;BME280;41551;47.500;8.408;2022-07-22T09:02:50;96385.13;;;25.73;58.40
55671;BME280;41551;47.500;8.408;2022-07-22T09:05:19;96377.25;;;25.80;57.95
55671;BME280;41551;47.500;8.408;2022-07-22T09:07:46;96365.31;;;25.81;57.79
55671;BME280;41551;47.500;8.408;2022-07-22T09:10:14;96371.59;;;25.85;58.18
55671;BME280;41551;47.500;8.408;2022-07-22T09:12:53;96369.09;;;25.93;57.95
55671;BME280;41551;47.500;8.408;2022-07-22T09:15:27;96369.78;;;26.02;57.86
55671;BME280;41551;47.500;8.408;2022-07-22T09:17:55;96369.31;;;26.12;57.67
55671;BME280;41551;47.500;8.408;2022-07-22T09:20:24;96369.31;;;26.12;57.48
55671;BME280;41551;47.500;8.408;2022-07-22T09:22:52;96378.06;;;26.21;57.42
55671;BME280;41551;47.500;8.408;2022-07-22T09:25:22;96381.06;;;26.32;57.10
55671;BME280;41551;47.500;8.408;2022-07-22T09:27:50;96381.41;;;26.31;56.47
55671;BME280;41551;47.500;8.408;2022-07-22T09:30:18;96388.59;;;26.39;56.43
55671;BME280;41551;47.500;8.408;2022-07-22T09:32:45;96381.81;;;26.45;56.37
55671;BME280;41551;47.500;8.408;2022-07-22T09:35:13;96375.00;;;26.51;56.13
55671;BME280;41551;47.500;8.408;2022-07-22T09:37:50;96364.97;;;26.52;56.42
55671;BME280;41551;47.500;8.408;2022-07-22T09:40:18;96368.09;;;26.54;56.49
55671;BME280;41551;47.500;8.408;2022-07-22T09:42:47;96375.75;;;26.36;57.32
55671;BME280;41551;47.500;8.408;2022-07-22T09:45:15;96372.81;;;26.41;57.45
55671;BME280;41551;47.500;8.408;2022-07-22T09:47:42;96366.00;;;26.47;57.03
55671;BME280;41551;47.500;8.408;2022-07-22T09:50:18;96364.34;;;26.58;56.27
55671;BME280;41551;47.500;8.408;2022-07-22T09:52:46;96361.53;;;26.67;56.52
55671;BME280;41551;47.500;8.408;2022-07-22T09:55:17;96363.03;;;26.81;55.98
55671;BME280;41551;47.500;8.408;2022-07-22T09:57:44;96361.72;;;26.90;55.42
55671;BME280;41551;47.500;8.408;2022-07-22T10:00:12;96366.09;;;26.95;55.45
55671;BME280;41551;47.500;8.408;2022-07-22T10:02:43;96360.97;;;27.06;55.23
55671;BME280;41551;47.500;8.408;2022-07-22T10:05:11;96360.75;;;27.15;55.08
55671;BME280;41551;47.500;8.408;2022-07-22T10:07:40;96370.66;;;27.23;54.41
55671;BME280;41551;47.500;8.408;2022-07-22T10:10:12;96358.75;;;27.27;54.36
55671;BME280;41551;47.500;8.408;2022-07-22T10:12:42;96359.88;;;27.26;54.74
55671;BME280;41551;47.500;8.408;2022-07-22T10:15:10;96361.53;;;27.31;55.05
55671;BME280;41551;47.500;8.408;2022-07-22T10:17:38;96351.50;;;27.32;54.62
55671;BME280;41551;47.500;8.408;2022-07-22T10:20:06;96360.78;;;27.30;54.67
55671;BME280;41551;47.500;8.408;2022-07-22T10:22:49;96354.47;;;27.26;54.78
55671;BME280;41551;47.500;8.408;2022-07-22T10:25:17;96352.91;;;27.25;54.51
55671;BME280;41551;47.500;8.408;2022-07-22T10:27:48;96340.34;;;27.17;54.80
55671;BME280;41551;47.500;8.408;2022-07-22T10:30:17;96334.81;;;27.29;54.94
55671;BME280;41551;47.500;8.408;2022-07-22T10:32:44;96330.13;;;27.42;54.31
55671;BME280;41551;47.500;8.408;2022-07-22T10:35:21;96337.31;;;27.54;53.15
55671;BME280;41551;47.500;8.408;2022-07-22T10:37:51;96328.94;;;27.59;53.01
55671;BME280;41551;47.500;8.408;2022-07-22T10:40:20;96334.53;;;27.67;53.32
55671;BME280;41551;47.500;8.408;2022-07-22T10:43:09;96329.22;;;27.74;53.08
55671;BME280;41551;47.500;8.408;2022-07-22T10:45:39;96323.97;;;27.81;52.27
55671;BME280;41551;47.500;8.408;2022-07-22T10:48:11;96317.53;;;27.89;52.13
55671;BME280;41551;47.500;8.408;2022-07-22T10:53:46;96320.44;;;27.96;52.19
55671;BME280;41551;47.500;8.408;2022-07-22T10:56:15;96321.13;;;27.93;52.29
55671;BME280;41551;47.500;8.408;2022-07-22T10:59:11;96321.94;;;27.94;52.48
55671;BME280;41551;47.500;8.408;2022-07-22T11:01:40;96311.09;;;27.94;51.94
55671;BME280;41551;47.500;8.408;2022-07-22T11:04:13;96311.31;;;28.05;51.21
55671;BME280;41551;47.500;8.408;2022-07-22T11:06:41;96304.31;;;28.04;50.94
55671;BME280;41551;47.500;8.408;2022-07-22T11:09:10;96304.75;;;28.06;49.92
55671;BME280;41551;47.500;8.408;2022-07-22T11:11:41;96303.41;;;28.15;50.54
55671;BME280;41551;47.500;8.408;2022-07-22T11:14:21;96301.78;;;28.34;50.12
55671;BME280;41551;47.500;8.408;2022-07-22T11:16:51;96303.00;;;28.36;50.22
55671;BME280;41551;47.500;8.408;2022-07-22T11:19:23;96303.28;;;28.31;49.58
55671;BME280;41551;47.500;8.408;2022-07-22T11:21:52;96297.16;;;28.34;49.36
55671;BME280;41551;47.500;8.408;2022-07-22T11:24:20;96288.09;;;28.27;49.05
55671;BME280;41551;47.500;8.408;2022-07-22T11:26:48;96281.47;;;28.24;49.12
55671;BME280;41551;47.500;8.408;2022-07-22T11:29:23;96285.75;;;28.25;49.54
55671;BME280;41551;47.500;8.408;2022-07-22T11:31:50;96283.91;;;28.10;49.63
55671;BME280;41551;47.500;8.408;2022-07-22T11:34:17;96278.19;;;28.15;49.94
55671;BME280;41551;47.500;8.408;2022-07-22T11:36:46;96275.47;;;28.15;49.25
55671;BME280;41551;47.500;8.408;2022-07-22T11:39:16;96271.34;;;28.21;49.27
55671;BME280;41551;47.500;8.408;2022-07-22T11:41:44;96283.31;;;28.40;49.06
55671;BME280;41551;47.500;8.408;2022-07-22T11:44:11;96275.00;;;28.52;48.82
55671;BME280;41551;47.500;8.408;2022-07-22T11:46:41;96272.78;;;28.58;47.42
55671;BME280;41551;47.500;8.408;2022-07-22T11:49:09;96265.97;;;28.67;45.76
55671;BME280;41551;47.500;8.408;2022-07-22T11:51:37;96269.22;;;28.77;45.01
55671;BME280;41551;47.500;8.408;2022-07-22T11:54:05;96262.34;;;28.83;45.44
55671;BME280;41551;47.500;8.408;2022-07-22T11:56:32;96250.03;;;28.89;45.21
55671;BME280;41551;47.500;8.408;2022-07-22T11:59:00;96257.50;;;28.73;44.17
55671;BME280;41551;47.500;8.408;2022-07-22T12:01:31;96246.63;;;28.69;42.48
55671;BME280;41551;47.500;8.408;2022-07-22T12:04:02;96248.56;;;28.68;42.16
55671;BME280;41551;47.500;8.408;2022-07-22T12:06:30;96242.94;;;28.81;43.08
55671;BME280;41551;47.500;8.408;2022-07-22T12:09:04;96246.91;;;28.87;43.09
55671;BME280;41551;47.500;8.408;2022-07-22T12:11:31;96231.88;;;28.93;43.24
55671;BME280;41551;47.500;8.408;2022-07-22T12:14:05;96241.81;;;29.12;44.04
55671;BME280;41551;47.500;8.408;2022-07-22T12:16:32;96236.09;;;29.17;43.79
55671;BME280;41551;47.500;8.408;2022-07-22T12:19:02;96231.03;;;29.16;43.51
55671;BME280;41551;47.500;8.408;2022-07-22T12:21:30;96223.91;;;29.07;43.00
55671;BME280;41551;47.500;8.408;2022-07-22T12:24:00;96220.47;;;29.11;43.31
55671;BME280;41551;47.500;8.408;2022-07-22T12:26:45;96217.75;;;29.11;42.75
55671;BME280;41551;47.500;8.408;2022-07-22T12:29:17;96222.09;;;29.15;42.57
55671;BME280;41551;47.500;8.408;2022-07-22T12:31:44;96212.84;;;29.20;42.42
55671;BME280;41551;47.500;8.408;2022-07-22T12:34:13;96210.69;;;29.29;41.73
55671;BME280;41551;47.500;8.408;2022-07-22T12:36:43;96208.56;;;29.46;42.10
55671;BME280;41551;47.500;8.408;2022-07-22T12:39:15;96209.50;;;29.60;41.96
55671;BME280;41551;47.500;8.408;2022-07-22T12:41:53;96201.31;;;29.57;41.47
55671;BME280;41551;47.500;8.408;2022-07-22T12:44:21;96202.28;;;29.75;40.72
55671;BME280;41551;47.500;8.408;2022-07-22T12:46:50;96207.13;;;29.89;39.24
55671;BME280;41551;47.500;8.408;2022-07-22T12:49:22;96205.69;;;29.99;38.42
55671;BME280;41551;47.500;8.408;2022-07-22T12:52:09;96198.84;;;30.12;38.62
55671;BME280;41551;47.500;8.408;2022-07-22T12:54:37;96205.06;;;30.17;38.07
55671;BME280;41551;47.500;8.408;2022-07-22T12:57:05;96203.53;;;30.16;37.22
55671;BME280;41551;47.500;8.408;2022-07-22T12:59:32;96195.47;;;30.30;37.13
55671;BME280;41551;47.500;8.408;2022-07-22T13:01:59;96199.50;;;30.43;37.53
55671;BME280;41551;47.500;8.408;2022-07-22T13:04:28;96203.16;;;30.62;36.63